sensor_id;sensor_type;location;lat;lon;timestamp;temperature;humidity
42803;DHT22;28447;48.682;9.022;2023-07-22T06:06:48;15.80;99.90
42803;DHT22;28447;48.682;9.022;2023-07-22T06:09:14;16.20;99.90
42803;DHT22;28447;48.682;9.022;2023-07-22T06:11:40;16.30;99.90
42803;DHT22;28447;48.682;9.022;2023-07-22T06:14:05;16.40;99.90
42803;DHT22;28447;48.682;9.022;2023-07-22T06:16:32;16.50;99.90
42803;DHT22;28447;48.682;9.022;2023-07-22T06:18:57;16.50;99.90
42803;DHT22;28447;48.682;9.022;2023-07-22T06:21:23;16.60;99.90
42803;DHT22;28447;48.682;9.022;2023-07-22T06:23:49;16.80;99.90
42803;DHT22;28447;48.682;9.022;2023-07-22T06:26:14;16.90;99.90
42803;DHT22;28447;48.682;9.022;2023-07-22T06:28:40;17.10;99.90
42803;DHT22;28447;48.682;9.022;2023-07-22T06:31:05;17.30;99.90
42803;DHT22;28447;48.682;9.022;2023-07-22T06:33:34;17.30;99.90
42803;DHT22;28447;48.682;9.022;2023-07-22T06:35:59;17.60;99.90
42803;DHT22;28447;48.682;9.022;2023-07-22T06:38:25;17.50;99.90
42803;DHT22;28447;48.682;9.022;2023-07-22T06:40:52;17.40;99.90
42803;DHT22;28447;48.682;9.022;2023-07-22T06:43:19;17.60;99.90
42803;DHT22;28447;48.682;9.022;2023-07-22T06:45:44;17.80;99.90
42803;DHT22;28447;48.682;9.022;2023-07-22T06:48:13;18.00;99.90
42803;DHT22;28447;48.682;9.022;2023-07-22T06:50:38;18.20;99.90
42803;DHT22;28447;48.682;9.022;2023-07-22T06:53:04;18.30;99.90
42803;DHT22;28447;48.682;9.022;2023-07-22T06:55:30;18.30;99.90
42803;DHT22;28447;48.682;9.022;2023-07-22T06:57:58;18.30;99.90
42803;DHT22;28447;48.682;9.022;2023-07-22T07:00:25;18.40;99.90
42803;DHT22;28447;48.682;9.022;2023-07-22T07:02:50;18.50;99.90
42803;DHT22;28447;48.682;9.022;2023-07-22T07:05:23;18.30;99.90
42803;DHT22;28447;48.682;9.022;2023-07-22T07:07:49;18.50;99.90
42803;DHT22;28447;48.682;9.022;2023-07-22T07:10:14;18.50;99.90
42803;DHT22;28447;48.682;9.022;2023-07-22T07:12:40;18.50;99.90
42803;DHT22;28447;48.682;9.022;2023-07-22T07:15:08;18.60;99.90
42803;DHT22;28447;48.682;9.022;2023-07-22T07:17:34;18.70;99.90
42803;DHT22;28447;48.682;9.022;2023-07-22T07:20:00;19.00;99.90
42803;DHT22;28447;48.682;9.022;2023-07-22T07:22:26;18.80;99.90
42803;DHT22;28447;48.682;9.022;2023-07-22T07:24:52;18.70;99.90
42803;DHT22;28447;48.682;9.022;2023-07-22T07:27:17;19.00;99.90
42803;DHT22;28447;48.682;9.022;2023-07-22T07:29:43;19.00;99.90
42803;DHT22;28447;48.682;9.022;2023-07-22T07:32:11;19.10;99.90
42803;DHT22;28447;48.682;9.022;2023-07-22T07:34:36;19.00;99.90
42803;DHT22;28447;48.682;9.022;2023-07-22T07:37:02;19.20;99.90
42803;DHT22;28447;48.682;9.022;2023-07-22T07:39:28;19.40;99.90
42803;DHT22;28447;48.682;9.022;2023-07-22T07:41:54;19.50;99.90
42803;DHT22;28447;48.682;9.022;2023-07-22T07:44:20;19.60;99.90
42803;DHT22;28447;48.682;9.022;2023-07-22T07:46:45;19.40;99.90
42803;DHT22;28447;48.682;9.022;2023-07-22T07:49:11;19.50;99.90
42803;DHT22;28447;48.682;9.022;2023-07-22T07:51:36;20.00;99.90
42803;DHT22;28447;48.682;9.022;2023-07-22T07:54:02;20.10;99.90
42803;DHT22;28447;48.682;9.022;2023-07-22T07:56:29;20.10;99.90
42803;DHT22;28447;48.682;9.022;2023-07-22T07:58:55;20.30;99.90
42803;DHT22;28447;48.682;9.022;2023-07-22T08:01:23;19.90;99.90
42803;DHT22;28447;48.682;9.022;2023-07-22T08:03:49;20.30;99.90
42803;DHT22;28447;48.682;9.022;2023-07-22T08:06:15;20.40;99.90
42803;DHT22;28447;48.682;9.022;2023-07-22T08:08:41;20.40;99.90
42803;DHT22;28447;48.682;9.022;2023-07-22T08:11:08;20.70;99.90
42803;DHT22;28447;48.682;9.022;2023-07-22T08:13:34;20.70;99.90
42803;DHT22;28447;48.682;9.022;2023-07-22T08:16:02;21.30;99.90
42803;DHT22;28447;48.682;9.022;2023-07-22T08:18:28;21.10;99.90
42803;DHT22;28447;48.682;9.022;2023-07-22T08:20:55;21.00;99.90
42803;DHT22;28447;48.682;9.022;2023-07-22T08:23:21;21.30;99.90
42803;DHT22;28447;48.682;9.022;2023-07-22T08:25:47;21.40;99.90
42803;DHT22;28447;48.682;9.022;2023-07-22T08:28:13;21.90;99.90
42803;DHT22;28447;48.682;9.022;2023-07-22T08:30:39;21.50;99.90
42803;DHT22;28447;48.682;9.022;2023-07-22T08:33:06;21.70;99.90
42803;DHT22;28447;48.682;9.022;2023-07-22T08:35:34;21.90;99.90
42803;DHT22;28447;48.682;9.022;2023-07-22T08:38:00;22.10;99.90
42803;DHT22;28447;48.682;9.022;2023-07-22T08:40:27;22.00;99.60
42803;DHT22;28447;48.682;9.022;2023-07-22T08:42:54;22.60;98.70
42803;DHT22;28447;48.682;9.022;2023-07-22T08:45:21;22.50;97.70
42803;DHT22;28447;48.682;9.022;2023-07-22T08:47:47;22.30;96.20
42803;DHT22;28447;48.682;9.022;2023-07-22T08:50:20;22.40;95.80
42803;DHT22;28447;48.682;9.022;2023-07-22T08:52:47;22.80;95.80
42803;DHT22;28447;48.682;9.022;2023-07-22T08:55:14;22.70;94.30
42803;DHT22;28447;48.682;9.022;2023-07-22T08:57:41;22.40;94.80
42803;DHT22;28447;48.682;9.022;2023-07-22T09:00:08;21.70;95.10
42803;DHT22;28447;48.682;9.022;2023-07-22T09:02:35;21.70;96.30
42803;DHT22;28447;48.682;9.022;2023-07-22T09:05:01;21.90;95.60
42803;DHT22;28447;48.682;9.022;2023-07-22T09:07:28;21.80;94.90
42803;DHT22;28447;48.682;9.022;2023-07-22T09:09:58;21.70;92.50
42803;DHT22;28447;48.682;9.022;2023-07-22T09:12:24;21.50;93.50
42803;DHT22;28447;48.682;9.022;2023-07-22T09:14:51;21.60;93.70
42803;DHT22;28447;48.682;9.022;2023-07-22T09:17:17;21.90;94.00
42803;DHT22;28447;48.682;9.022;2023-07-22T09:19:43;21.70;94.60
42803;DHT22;28447;48.682;9.022;2023-07-22T09:22:08;21.70;94.50
42803;DHT22;28447;48.682;9.022;2023-07-22T09:24:34;22.00;94.80
42803;DHT22;28447;48.682;9.022;2023-07-22T09:27:00;21.80;94.20
42803;DHT22;28447;48.682;9.022;2023-07-22T09:29:39;22.30;92.20
42803;DHT22;28447;48.682;9.022;2023-07-22T09:32:09;22.10;93.50
42803;DHT22;28447;48.682;9.022;2023-07-22T09:34:35;21.80;92.90
42803;DHT22;28447;48.682;9.022;2023-07-22T09:37:00;21.70;92.70
42803;DHT22;28447;48.682;9.022;2023-07-22T09:39:26;21.80;91.80
42803;DHT22;28447;48.682;9.022;2023-07-22T09:41:52;21.90;92.50
42803;DHT22;28447;48.682;9.022;2023-07-22T09:44:18;21.60;92.10
42803;DHT22;28447;48.682;9.022;2023-07-22T09:46:48;21.50;92.20
42803;DHT22;28447;48.682;9.022;2023-07-22T09:49:16;21.90;93.50
42803;DHT22;28447;48.682;9.022;2023-07-22T09:51:53;21.70;91.90
42803;DHT22;28447;48.682;9.022;2023-07-22T09:54:19;21.70;92.80
42803;DHT22;28447;48.682;9.022;2023-07-22T09:56:49;21.70;92.40
42803;DHT22;28447;48.682;9.022;2023-07-22T09:59:18;22.60;91.60
42803;DHT22;28447;48.682;9.022;2023-07-22T10:01:44;22.50;91.50
42803;DHT22;28447;48.682;9.022;2023-07-22T10:04:12;23.20;90.20
42803;DHT22;28447;48.682;9.022;2023-07-22T10:06:42;22.90;90.70
42803;DHT22;28447;48.682;9.022;2023-07-22T10:09:11;22.50;90.50
42803;DHT22;28447;48.682;9.022;2023-07-22T10:11:37;22.40;92.00
42803;DHT22;28447;48.682;9.022;2023-07-22T10:14:04;22.40;91.50
42803;DHT22;28447;48.682;9.022;2023-07-22T10:16:31;22.70;91.80
42803;DHT22;28447;48.682;9.022;2023-07-22T10:18:58;22.30;91.90
42803;DHT22;28447;48.682;9.022;2023-07-22T10:21:24;22.60;92.00
42803;DHT22;28447;48.682;9.022;2023-07-22T10:23:51;23.30;90.60
42803;DHT22;28447;48.682;9.022;2023-07-22T10:26:18;23.20;91.30
42803;DHT22;28447;48.682;9.022;2023-07-22T10:28:47;22.70;91.20
42803;DHT22;28447;48.682;9.022;2023-07-22T10:31:14;22.90;92.50
42803;DHT22;28447;48.682;9.022;2023-07-22T10:33:45;22.90;91.10
42803;DHT22;28447;48.682;9.022;2023-07-22T10:36:16;23.80;92.60
42803;DHT22;28447;48.682;9.022;2023-07-22T10:38:56;23.50;90.80
42803;DHT22;28447;48.682;9.022;2023-07-22T10:41:22;23.10;91.70
42803;DHT22;28447;48.682;9.022;2023-07-22T10:43:57;23.40;91.00
42803;DHT22;28447;48.682;9.022;2023-07-22T10:46:33;23.60;91.10
42803;DHT22;28447;48.682;9.022;2023-07-22T10:49:15;23.50;90.20
42803;DHT22;28447;48.682;9.022;2023-07-22T10:51:48;23.10;90.80
42803;DHT22;28447;48.682;9.022;2023-07-22T10:54:15;23.10;91.20
42803;DHT22;28447;48.682;9.022;2023-07-22T10:56:56;22.80;91.20
42803;DHT22;28447;48.682;9.022;2023-07-22T11:00:00;22.80;91.30
42803;DHT22;28447;48.682;9.022;2023-07-22T11:02:27;23.20;91.20
42803;DHT22;28447;48.682;9.022;2023-07-22T11:04:56;23.00;91.30
42803;DHT22;28447;48.682;9.022;2023-07-22T11:07:44;22.90;91.20
42803;DHT22;28447;48.682;9.022;2023-07-22T11:10:16;22.50;92.10
42803;DHT22;28447;48.682;9.022;2023-07-22T11:12:45;22.80;92.20
42803;DHT22;28447;48.682;9.022;2023-07-22T11:15:15;22.70;92.00
42803;DHT22;28447;48.682;9.022;2023-07-22T11:17:41;22.80;92.40
42803;DHT22;28447;48.682;9.022;2023-07-22T11:20:07;23.10;91.60
42803;DHT22;28447;48.682;9.022;2023-07-22T11:22:32;24.00;92.00
42803;DHT22;28447;48.682;9.022;2023-07-22T11:24:58;24.60;90.30
42803;DHT22;28447;48.682;9.022;2023-07-22T11:27:25;24.90;90.80
42803;DHT22;28447;48.682;9.022;2023-07-22T11:29:51;24.70;88.50
42803;DHT22;28447;48.682;9.022;2023-07-22T11:32:20;23.90;88.70
42803;DHT22;28447;48.682;9.022;2023-07-22T11:34:51;24.40;88.10
42803;DHT22;28447;48.682;9.022;2023-07-22T11:37:18;25.00;86.70
42803;DHT22;28447;48.682;9.022;2023-07-22T11:39:44;24.50;87.90
42803;DHT22;28447;48.682;9.022;2023-07-22T11:42:10;25.50;86.60
42803;DHT22;28447;48.682;9.022;2023-07-22T11:44:36;26.10;81.60
42803;DHT22;28447;48.682;9.022;2023-07-22T11:47:04;25.10;83.10
42803;DHT22;28447;48.682;9.022;2023-07-22T11:49:32;24.60;84.10
42803;DHT22;28447;48.682;9.022;2023-07-22T11:52:09;25.70;82.10
42803;DHT22;28447;48.682;9.022;2023-07-22T11:54:41;24.40;84.80
42803;DHT22;28447;48.682;9.022;2023-07-22T11:57:21;24.60;84.50
42803;DHT22;28447;48.682;9.022;2023-07-22T11:59:56;24.50;85.10
42803;DHT22;28447;48.682;9.022;2023-07-22T12:02:27;25.20;84.50
42803;DHT22;28447;48.682;9.022;2023-07-22T12:05:01;26.20;82.60
42803;DHT22;28447;48.682;9.022;2023-07-22T12:07:35;25.30;85.10
42803;DHT22;28447;48.682;9.022;2023-07-22T12:10:07;24.80;83.80
42803;DHT22;28447;48.682;9.022;2023-07-22T12:12:40;25.80;81.10
42803;DHT22;28447;48.682;9.022;2023-07-22T12:15:16;26.80;78.20
42803;DHT22;28447;48.682;9.022;2023-07-22T12:17:50;26.20;79.90
42803;DHT22;28447;48.682;9.022;2023-07-22T12:20:17;26.00;81.10
42803;DHT22;28447;48.682;9.022;2023-07-22T12:22:46;25.30;82.90
42803;DHT22;28447;48.682;9.022;2023-07-22T12:25:13;24.70;81.80
42803;DHT22;28447;48.682;9.022;2023-07-22T12:27:39;24.80;82.30
42803;DHT22;28447;48.682;9.022;2023-07-22T12:30:06;26.40;78.30
42803;DHT22;28447;48.682;9.022;2023-07-22T12:32:33;26.80;78.20
42803;DHT22;28447;48.682;9.022;2023-07-22T12:34:58;27.60;75.00
42803;DHT22;28447;48.682;9.022;2023-07-22T12:37:24;27.90;75.80
42803;DHT22;28447;48.682;9.022;2023-07-22T12:39:51;28.00;74.80
42803;DHT22;28447;48.682;9.022;2023-07-22T12:42:16;28.50;73.80
42803;DHT22;28447;48.682;9.022;2023-07-22T12:44:42;28.80;72.00
42803;DHT22;28447;48.682;9.022;2023-07-22T12:47:08;28.70;72.20
42803;DHT22;28447;48.682;9.022;2023-07-22T12:49:34;27.60;72.10
42803;DHT22;28447;48.682;9.022;2023-07-22T12:51:59;27.60;72.70
42803;DHT22;28447;48.682;9.022;2023-07-22T12:54:30;28.10;73.70
42803;DHT22;28447;48.682;9.022;2023-07-22T12:56:56;27.00;73.30
42803;DHT22;28447;48.682;9.022;2023-07-22T12:59:28;29.00;72.50
42803;DHT22;28447;48.682;9.022;2023-07-22T13:01:54;29.00;69.30
42803;DHT22;28447;48.682;9.022;2023-07-22T13:04:19;28.60;69.20
42803;DHT22;28447;48.682;9.022;2023-07-22T13:06:45;28.40;71.20
42803;DHT22;28447;48.682;9.022;2023-07-22T13:09:11;27.90;70.30
42803;DHT22;28447;48.682;9.022;2023-07-22T13:11:36;27.90;70.60
42803;DHT22;28447;48.682;9.022;2023-07-22T13:14:02;27.30;71.10
42803;DHT22;28447;48.682;9.022;2023-07-22T13:16:28;28.20;72.40
42803;DHT22;28447;48.682;9.022;2023-07-22T13:18:53;29.90;66.50
42803;DHT22;28447;48.682;9.022;2023-07-22T13:21:19;30.80;67.70
42803;DHT22;28447;48.682;9.022;2023-07-22T13:23:45;31.10;65.60
42803;DHT22;28447;48.682;9.022;2023-07-22T13:26:10;29.60;66.10
42803;DHT22;28447;48.682;9.022;2023-07-22T13:28:36;28.50;68.00
42803;DHT22;28447;48.682;9.022;2023-07-22T13:31:01;28.40;69.10
42803;DHT22;28447;48.682;9.022;2023-07-22T13:33:30;26.70;70.40
42803;DHT22;28447;48.682;9.022;2023-07-22T13:35:56;27.10;71.90
42803;DHT22;28447;48.682;9.022;2023-07-22T13:38:22;26.40;73.20
42803;DHT22;28447;48.682;9.022;2023-07-22T13:40:47;26.80;71.70
42803;DHT22;28447;48.682;9.022;2023-07-22T13:43:13;28.30;71.10
42803;DHT22;28447;48.682;9.022;2023-07-22T13:45:39;28.00;70.10
42803;DHT22;28447;48.682;9.022;2023-07-22T13:48:04;27.40;71.90
42803;DHT22;28447;48.682;9.022;2023-07-22T13:50:30;26.10;72.70
42803;DHT22;28447;48.682;9.022;2023-07-22T13:52:56;25.60;75.80
42803;DHT22;28447;48.682;9.022;2023-07-22T13:55:21;26.20;75.60
42803;DHT22;28447;48.682;9.022;2023-07-22T13:57:47;26.10;74.80
42803;DHT22;28447;48.682;9.022;2023-07-22T14:00:13;26.90;72.50
42803;DHT22;28447;48.682;9.022;2023-07-22T14:02:40;28.20;70.10
42803;DHT22;28447;48.682;9.022;2023-07-22T14:05:06;27.20;71.80
42803;DHT22;28447;48.682;9.022;2023-07-22T14:07:32;26.40;72.30
42803;DHT22;28447;48.682;9.022;2023-07-22T14:09:58;26.00;73.20
42803;DHT22;28447;48.682;9.022;2023-07-22T14:12:24;25.50;75.10
42803;DHT22;28447;48.682;9.022;2023-07-22T14:14:49;26.00;73.90
42803;DHT22;28447;48.682;9.022;2023-07-22T14:17:15;26.30;73.30
42803;DHT22;28447;48.682;9.022;2023-07-22T14:19:41;26.40;71.80
42803;DHT22;28447;48.682;9.022;2023-07-22T14:22:07;25.90;71.30
42803;DHT22;28447;48.682;9.022;2023-07-22T14:24:34;26.40;71.40
42803;DHT22;28447;48.682;9.022;2023-07-22T14:26:59;27.30;71.10
42803;DHT22;28447;48.682;9.022;2023-07-22T14:29:25;26.90;73.70
42803;DHT22;28447;48.682;9.022;2023-07-22T14:31:51;27.60;69.10
42803;DHT22;28447;48.682;9.022;2023-07-22T14:34:20;28.30;68.30
42803;DHT22;28447;48.682;9.022;2023-07-22T14:36:45;28.40;70.60
42803;DHT22;28447;48.682;9.022;2023-07-22T14:39:11;29.70;66.20
42803;DHT22;28447;48.682;9.022;2023-07-22T14:41:37;27.20;70.20
42803;DHT22;28447;48.682;9.022;2023-07-22T14:44:02;29.90;67.70
42803;DHT22;28447;48.682;9.022;2023-07-22T14:46:28;29.50;66.80
42803;DHT22;28447;48.682;9.022;2023-07-22T14:48:54;29.20;67.00
42803;DHT22;28447;48.682;9.022;2023-07-22T14:51:20;27.90;68.30
42803;DHT22;28447;48.682;9.022;2023-07-22T14:53:45;26.00;71.40
42803;DHT22;28447;48.682;9.022;2023-07-22T14:56:11;25.60;72.80
42803;DHT22;28447;48.682;9.022;2023-07-22T14:58:37;25.30;72.60
42803;DHT22;28447;48.682;9.022;2023-07-22T15:01:02;25.20;73.40
42803;DHT22;28447;48.682;9.022;2023-07-22T15:03:28;24.80;73.30
42803;DHT22;28447;48.682;9.022;2023-07-22T15:05:54;25.40;71.90
42803;DHT22;28447;48.682;9.022;2023-07-22T15:08:19;25.20;72.60
42803;DHT22;28447;48.682;9.022;2023-07-22T15:10:45;24.40;74.60
42803;DHT22;28447;48.682;9.022;2023-07-22T15:13:10;24.50;74.90
42803;DHT22;28447;48.682;9.022;2023-07-22T15:15:36;24.50;75.10
42803;DHT22;28447;48.682;9.022;2023-07-22T15:18:02;24.60;75.90
42803;DHT22;28447;48.682;9.022;2023-07-22T15:20:27;25.10;75.70
42803;DHT22;28447;48.682;9.022;2023-07-22T15:22:53;25.10;73.70
42803;DHT22;28447;48.682;9.022;2023-07-22T15:25:19;25.10;75.80
42803;DHT22;28447;48.682;9.022;2023-07-22T15:27:44;24.60;76.60
42803;DHT22;28447;48.682;9.022;2023-07-22T15:30:10;24.70;76.30
42803;DHT22;28447;48.682;9.022;2023-07-22T15:32:36;25.00;75.10
42803;DHT22;28447;48.682;9.022;2023-07-22T15:35:02;25.10;76.60
42803;DHT22;28447;48.682;9.022;2023-07-22T15:37:27;24.60;74.60
42803;DHT22;28447;48.682;9.022;2023-07-22T15:39:53;24.40;76.20
42803;DHT22;28447;48.682;9.022;2023-07-22T15:42:19;24.30;74.60
42803;DHT22;28447;48.682;9.022;2023-07-22T15:44:44;24.30;76.30
42803;DHT22;28447;48.682;9.022;2023-07-22T15:47:10;24.10;75.60
42803;DHT22;28447;48.682;9.022;2023-07-22T15:49:35;23.90;75.30
42803;DHT22;28447;48.682;9.022;2023-07-22T15:52:01;24.20;76.10
42803;DHT22;28447;48.682;9.022;2023-07-22T15:54:27;24.50;75.80
42803;DHT22;28447;48.682;9.022;2023-07-22T15:56:55;24.70;75.10
42803;DHT22;28447;48.682;9.022;2023-07-22T15:59:21;24.70;75.00
42803;DHT22;28447;48.682;9.022;2023-07-22T16:01:47;24.50;74.90
42803;DHT22;28447;48.682;9.022;2023-07-22T16:04:13;24.50;74.80
42803;DHT22;28447;48.682;9.022;2023-07-22T16:06:39;24.70;74.30
42803;DHT22;28447;48.682;9.022;2023-07-22T16:09:05;24.40;75.10
42803;DHT22;28447;48.682;9.022;2023-07-22T16:11:31;24.50;75.00
42803;DHT22;28447;48.682;9.022;2023-07-22T16:13:56;24.40;75.90
42803;DHT22;28447;48.682;9.022;2023-07-22T16:16:22;24.80;73.80
42803;DHT22;28447;48.682;9.022;2023-07-22T16:18:48;25.10;74.60
42803;DHT22;28447;48.682;9.022;2023-07-22T16:21:14;25.30;73.80
42803;DHT22;28447;48.682;9.022;2023-07-22T16:23:39;25.10;74.10
42803;DHT22;28447;48.682;9.022;2023-07-22T16:26:05;24.70;74.80
42803;DHT22;28447;48.682;9.022;2023-07-22T16:28:31;24.50;76.20
42803;DHT22;28447;48.682;9.022;2023-07-22T16:30:57;24.60;75.10
42803;DHT22;28447;48.682;9.022;2023-07-22T16:33:22;24.60;74.50
42803;DHT22;28447;48.682;9.022;2023-07-22T16:35:48;24.40;73.80
42803;DHT22;28447;48.682;9.022;2023-07-22T16:38:13;24.40;74.40
42803;DHT22;28447;48.682;9.022;2023-07-22T16:40:39;25.20;74.70
42803;DHT22;28447;48.682;9.022;2023-07-22T16:43:05;25.40;72.90
42803;DHT22;28447;48.682;9.022;2023-07-22T16:45:31;25.30;72.00
42803;DHT22;28447;48.682;9.022;2023-07-22T16:47:56;25.50;74.20
42803;DHT22;28447;48.682;9.022;2023-07-22T16:50:22;25.40;73.30
42803;DHT22;28447;48.682;9.022;2023-07-22T16:52:48;25.10;72.40
42803;DHT22;28447;48.682;9.022;2023-07-22T16:55:13;24.80;74.10
42803;DHT22;28447;48.682;9.022;2023-07-22T16:57:39;24.90;74.00
42803;DHT22;28447;48.682;9.022;2023-07-22T17:00:11;24.60;75.70
42803;DHT22;28447;48.682;9.022;2023-07-22T17:02:42;24.40;75.00
42803;DHT22;28447;48.682;9.022;2023-07-22T17:05:08;24.50;76.40
42803;DHT22;28447;48.682;9.022;2023-07-22T17:07:35;24.60;75.10
42803;DHT22;28447;48.682;9.022;2023-07-22T17:10:01;24.80;75.50
42803;DHT22;28447;48.682;9.022;2023-07-22T17:12:27;24.80;74.50
42803;DHT22;28447;48.682;9.022;2023-07-22T17:14:55;25.10;74.50
42803;DHT22;28447;48.682;9.022;2023-07-22T17:17:20;24.60;73.80
42803;DHT22;28447;48.682;9.022;2023-07-22T17:19:46;24.40;75.00
42803;DHT22;28447;48.682;9.022;2023-07-22T17:22:12;24.20;75.00
42803;DHT22;28447;48.682;9.022;2023-07-22T17:24:38;24.30;75.10
42803;DHT22;28447;48.682;9.022;2023-07-22T17:27:04;24.20;74.60
42803;DHT22;28447;48.682;9.022;2023-07-22T17:29:30;24.00;75.00
42803;DHT22;28447;48.682;9.022;2023-07-22T17:31:55;24.00;75.10
42803;DHT22;28447;48.682;9.022;2023-07-22T17:34:21;24.00;75.40
42803;DHT22;28447;48.682;9.022;2023-07-22T17:36:47;24.00;75.60
42803;DHT22;28447;48.682;9.022;2023-07-22T17:39:13;24.00;75.10
42803;DHT22;28447;48.682;9.022;2023-07-22T17:41:38;23.90;75.90
42803;DHT22;28447;48.682;9.022;2023-07-22T17:44:05;23.70;76.60
42803;DHT22;28447;48.682;9.022;2023-07-22T17:46:48;23.60;76.20
42803;DHT22;28447;48.682;9.022;2023-07-22T17:49:13;23.70;76.60
42803;DHT22;28447;48.682;9.022;2023-07-22T17:51:39;23.60;78.00
42803;DHT22;28447;48.682;9.022;2023-07-22T17:54:05;23.50;77.10
42803;DHT22;28447;48.682;9.022;2023-07-22T17:56:30;23.50;77.70
42803;DHT22;28447;48.682;9.022;2023-07-22T17:59:04;23.50;77.70
42803;DHT22;28447;48.682;9.022;2023-07-22T18:01:29;23.50;78.80
42803;DHT22;28447;48.682;9.022;2023-07-22T18:03:55;23.30;77.60
42803;DHT22;28447;48.682;9.022;2023-07-22T18:06:21;23.40;78.40
42803;DHT22;28447;48.682;9.022;2023-07-22T18:08:48;23.30;78.40
42803;DHT22;28447;48.682;9.022;2023-07-22T18:11:17;23.30;78.50
42803;DHT22;28447;48.682;9.022;2023-07-22T18:13:43;23.20;78.40
42803;DHT22;28447;48.682;9.022;2023-07-22T18:16:08;23.20;78.30
42803;DHT22;28447;48.682;9.022;2023-07-22T18:18:34;23.10;78.90
42803;DHT22;28447;48.682;9.022;2023-07-22T18:21:00;23.00;78.80
42803;DHT22;28447;48.682;9.022;2023-07-22T18:23:27;23.00;78.80
42803;DHT22;28447;48.682;9.022;2023-07-22T18:25:53;22.90;79.80
42803;DHT22;28447;48.682;9.022;2023-07-22T18:28:21;22.80;79.70
42803;DHT22;28447;48.682;9.022;2023-07-22T18:30:50;22.80;80.10
42803;DHT22;28447;48.682;9.022;2023-07-22T18:33:16;22.80;80.00
42803;DHT22;28447;48.682;9.022;2023-07-22T18:35:48;22.60;80.90
42803;DHT22;28447;48.682;9.022;2023-07-22T18:38:13;22.60;80.00
42803;DHT22;28447;48.682;9.022;2023-07-22T18:40:43;22.60;80.60
42803;DHT22;28447;48.682;9.022;2023-07-22T18:43:09;22.50;80.60
42803;DHT22;28447;48.682;9.022;2023-07-22T18:45:34;22.50;80.30
42803;DHT22;28447;48.682;9.022;2023-07-22T18:48:00;22.40;80.80
42803;DHT22;28447;48.682;9.022;2023-07-22T18:50:26;22.30;80.90
42803;DHT22;28447;48.682;9.022;2023-07-22T18:52:54;22.30;81.30
42803;DHT22;28447;48.682;9.022;2023-07-22T18:55:21;22.20;81.50
42803;DHT22;28447;48.682;9.022;2023-07-22T18:57:47;22.20;81.80
42803;DHT22;28447;48.682;9.022;2023-07-22T19:00:13;22.00;81.90
42803;DHT22;28447;48.682;9.022;2023-07-22T19:02:39;22.00;82.10
42803;DHT22;28447;48.682;9.022;2023-07-22T19:05:05;21.90;82.50
42803;DHT22;28447;48.682;9.022;2023-07-22T19:07:32;21.80;85.70
42803;DHT22;28447;48.682;9.022;2023-07-22T19:09:58;21.70;87.50
42803;DHT22;28447;48.682;9.022;2023-07-22T19:12:25;21.60;84.00
42803;DHT22;28447;48.682;9.022;2023-07-22T19:14:56;21.60;84.90
42803;DHT22;28447;48.682;9.022;2023-07-22T19:17:25;21.40;87.60
42803;DHT22;28447;48.682;9.022;2023-07-22T19:19:51;21.20;90.20
42803;DHT22;28447;48.682;9.022;2023-07-22T19:22:17;21.10;90.90
42803;DHT22;28447;48.682;9.022;2023-07-22T19:24:45;20.90;91.20
42803;DHT22;28447;48.682;9.022;2023-07-22T19:27:12;20.70;90.80
42803;DHT22;28447;48.682;9.022;2023-07-22T19:29:38;20.70;91.50
42803;DHT22;28447;48.682;9.022;2023-07-22T19:32:04;20.60;92.10
42803;DHT22;28447;48.682;9.022;2023-07-22T19:34:32;20.40;92.20
42803;DHT22;28447;48.682;9.022;2023-07-22T19:36:59;20.30;92.60
42803;DHT22;28447;48.682;9.022;2023-07-22T19:39:25;20.00;93.00
42803;DHT22;28447;48.682;9.022;2023-07-22T19:41:51;19.80;92.50
42803;DHT22;28447;48.682;9.022;2023-07-22T19:44:17;19.70;93.30
42803;DHT22;28447;48.682;9.022;2023-07-22T19:46:43;19.70;93.50
42803;DHT22;28447;48.682;9.022;2023-07-22T19:49:09;19.60;94.20
42803;DHT22;28447;48.682;9.022;2023-07-22T19:51:35;19.50;93.60
42803;DHT22;28447;48.682;9.022;2023-07-22T19:54:01;19.40;93.80
42803;DHT22;28447;48.682;9.022;2023-07-22T19:56:26;19.40;94.40
42803;DHT22;28447;48.682;9.022;2023-07-22T19:58:52;19.30;94.10
42803;DHT22;28447;48.682;9.022;2023-07-22T20:01:17;19.30;94.80
42803;DHT22;28447;48.682;9.022;2023-07-22T20:03:46;19.10;94.70
42803;DHT22;28447;48.682;9.022;2023-07-22T20:06:11;19.00;95.10
42803;DHT22;28447;48.682;9.022;2023-07-22T20:08:43;18.90;94.70
42803;DHT22;28447;48.682;9.022;2023-07-22T20:11:08;18.90;95.60
42803;DHT22;28447;48.682;9.022;2023-07-22T20:13:35;18.90;96.00
42803;DHT22;28447;48.682;9.022;2023-07-22T20:16:04;18.80;96.20
42803;DHT22;28447;48.682;9.022;2023-07-22T20:18:30;18.70;96.40
42803;DHT22;28447;48.682;9.022;2023-07-22T20:20:56;18.60;97.10
42803;DHT22;28447;48.682;9.022;2023-07-22T20:23:22;18.60;97.40
42803;DHT22;28447;48.682;9.022;2023-07-22T20:25:47;18.50;97.40
42803;DHT22;28447;48.682;9.022;2023-07-22T20:28:13;18.50;97.40
42803;DHT22;28447;48.682;9.022;2023-07-22T20:30:39;18.40;97.30
42803;DHT22;28447;48.682;9.022;2023-07-22T20:33:04;18.30;97.30
42803;DHT22;28447;48.682;9.022;2023-07-22T20:35:30;18.40;97.50
42803;DHT22;28447;48.682;9.022;2023-07-22T20:37:55;18.30;97.60
42803;DHT22;28447;48.682;9.022;2023-07-22T20:40:21;18.30;97.50
42803;DHT22;28447;48.682;9.022;2023-07-22T20:42:47;18.30;98.00
42803;DHT22;28447;48.682;9.022;2023-07-22T20:45:13;18.40;97.90
42803;DHT22;28447;48.682;9.022;2023-07-22T20:47:39;18.40;98.30
42803;DHT22;28447;48.682;9.022;2023-07-22T20:50:05;18.50;98.10
42803;DHT22;28447;48.682;9.022;2023-07-22T20:52:31;18.50;96.80
42803;DHT22;28447;48.682;9.022;2023-07-22T20:54:57;18.50;97.00
42803;DHT22;28447;48.682;9.022;2023-07-22T20:57:23;18.80;96.20
42803;DHT22;28447;48.682;9.022;2023-07-22T20:59:50;19.00;95.00
42803;DHT22;28447;48.682;9.022;2023-07-22T21:02:19;19.20;94.50
42803;DHT22;28447;48.682;9.022;2023-07-22T21:04:45;19.20;95.10
42803;DHT22;28447;48.682;9.022;2023-07-22T21:07:10;19.20;95.10
42803;DHT22;28447;48.682;9.022;2023-07-22T21:09:36;19.20;94.40
42803;DHT22;28447;48.682;9.022;2023-07-22T21:12:02;19.30;94.10
42803;DHT22;28447;48.682;9.022;2023-07-22T21:14:28;19.50;94.10
42803;DHT22;28447;48.682;9.022;2023-07-22T21:16:54;19.40;94.10
42803;DHT22;28447;48.682;9.022;2023-07-22T21:19:19;19.40;94.00
42803;DHT22;28447;48.682;9.022;2023-07-22T21:21:47;19.40;94.00
42803;DHT22;28447;48.682;9.022;2023-07-22T21:24:13;19.30;95.30
42803;DHT22;28447;48.682;9.022;2023-07-22T21:26:38;19.20;94.10
42803;DHT22;28447;48.682;9.022;2023-07-22T21:29:04;19.20;94.10
42803;DHT22;28447;48.682;9.022;2023-07-22T21:31:30;19.30;93.90
42803;DHT22;28447;48.682;9.022;2023-07-22T21:33:56;19.30;94.00